Weather observations for the past three days for
Burbank - Bob Hope Airport
Metric (Imperial)
Date Time (pdt) Wind (kph) Vis. (km) Weather Sky Cond. Temperature (ºC) Relative Humidity Wind Chill (°C) Heat Index (°C) Pressure Precipitation (cm)
Air Dwpt 6 hour altimeter (cm) sea level (mb) 1 hr 3 hr 6 hr
Max. Min.
31 09:53 SE 13 16.09 Fair CLR 23.9 17.2 66% 25 76.07 1012.9
31 08:53 SE 7 16.09 Partly Cloudy SCT014 22.2 16.7 71% 76.07 1012.7
31 07:53 Calm 16.09 Mostly Cloudy BKN014 21.1 15.6 71% 76.05 1012.6
31 06:53 NW 6 16.09 Fair CLR 20 15 73% 76 1011.9
31 05:53 Calm 16.09 Fair CLR 20.6 15 70% 75.97 1011.4
31 04:53 Calm 16.09 Fair CLR 20.6 15 22.8 20.6 70% 75.97 1011.3
31 03:53 Calm 16.09 Fair CLR 20.6 16.1 76% 75.97 1011.4
31 02:53 SW 6 16.09 Fair CLR 20.6 16.1 76% 75.97 1011.4
31 01:53 S 7 16.09 Fair CLR 21.1 15.6 71% 75.97 1011.3
31 00:53 SE 11 16.09 Fair CLR 21.7 16.1 71% 75.95 1011.1
30 23:53 SE 9 16.09 Fair CLR 22.2 16.1 68% 75.95 1010.9
30 22:53 SE 11 16.09 Fair CLR 22.8 16.1 30.6 22.8 66% 75.92 1010.9
30 21:53 SE 11 16.09 Fair CLR 24.4 15 56% 26 75.92 1010.8
30 20:53 SE 11 16.09 Fair CLR 25 15.6 56% 26 75.9 1010.4
30 19:53 S 11 16.09 Fair CLR 24.4 15 56% 26 75.84 1009.6
30 18:53 S 15 16.09 Fair CLR 26.1 15.6 52% 27 75.79 1009.2
30 17:53 S 19 16.09 Fair CLR 28.3 15 44% 28 75.79 1009.1
30 16:53 S 20 16.09 Fair CLR 30.6 15.6 32.8 28.3 40% 30 75.79 1008.9
30 15:53 SW 13 16.09 Fair CLR 31.7 16.1 39% 32 75.82 1009.2
30 14:53 S 17 16.09 Fair CLR 31.7 16.7 41% 32 75.87 1010.1
30 13:53 S 20 16.09 Fair CLR 32.2 16.7 39% 32 75.9 1010.5
30 12:53 S 20 G 28 16.09 Fair CLR 31.7 16.1 39% 32 75.92 1010.6
30 11:53 S 11 16.09 Fair CLR 30.6 17.2 45% 31 75.95 1011.1
30 10:53 SE 9 16.09 Fair CLR 28.3 17.8 28.3 22.2 53% 29 75.97 1011.3
30 09:53 SE 7 16.09 Fair CLR 26.7 17.2 56% 27 75.97 1011.3
30 08:53 SE 7 16.09 Fair CLR 24.4 18.3 69% 25 75.97 1011.4
30 07:53 SE 9 16.09 Fair CLR 22.8 17.8 74% 76 1011.7
30 06:53 SE 6 16.09 Fair CLR 22.8 17.2 71% 75.95 1011.2
30 05:53 Calm 16.09 Fair CLR 22.8 17.2 71% 75.9 1010.5
30 04:53 E 6 16.09 Fair CLR 22.8 17.2 25 22.8 71% 75.9 1010.2
30 03:53 E 6 16.09 Fair CLR 22.8 17.2 71% 75.87 1010.0
30 02:53 SE 6 16.09 Fair CLR 23.3 16.7 67% 75.87 1010.0
30 01:53 SE 13 16.09 Fair CLR 23.3 17.2 69% 75.87 1009.8
30 00:53 SE 13 16.09 Fair CLR 23.9 17.8 69% 25 75.87 1009.9
29 23:53 SE 17 16.09 Fair CLR 23.9 17.8 69% 25 75.87 1009.9
29 22:53 SE 9 16.09 Fair CLR 25 17.8 34.4 25 64% 26 75.84 1009.6
29 21:53 SE 11 16.09 Fair CLR 26.1 17.2 58% 27 75.84 1009.7
29 20:53 SE 11 16.09 Fair CLR 27.2 16.7 53% 28 75.82 1009.3
29 19:53 S 9 16.09 Fair CLR 27.2 16.1 51% 28 75.79 1008.8
29 18:53 S 15 16.09 Fair CLR 28.9 16.7 48% 29 75.74 1008.4
29 17:53 S 17 16.09 Fair CLR 32.8 15 34% 32 75.77 1008.4
29 16:53 S 17 16.09 Fair CLR 34.4 13.9 35.6 31.1 29% 34 75.77 1008.5
29 15:53 S 17 16.09 Fair CLR 35 13.3 27% 34 75.79 1008.7
29 14:53 S 17 16.09 Fair CLR 35 14.4 29% 34 75.84 1009.3
29 13:53 S 20 16.09 Fair CLR 34.4 17.2 36% 35 75.9 1010.1
29 12:53 S 13 16.09 Fair CLR 33.9 17.8 38% 35 75.92 1010.4
29 11:53 SE 9 16.09 Fair CLR 32.2 18.9 45% 34 75.97 1011.3
29 10:53 S 15 16.09 Fair CLR 31.1 18.9 31.1 23.9 48% 32 76 1011.6
29 09:53 S 9 16.09 Fair CLR 28.3 18.9 57% 30 76.02 1011.8
29 08:53 S 7 16.09 Fair CLR 26.1 18.9 65% 27 76 1011.7
29 07:53 Calm 16.09 Fair CLR 25 19.4 71% 26 76 1011.5
29 06:53 Calm 16.09 Fair CLR 23.9 19.4 76% 24 75.95 1011.0
29 05:53 SE 7 16.09 Fair CLR 24.4 19.4 74% 25 75.92 1010.7
29 04:53 E 9 16.09 Fair CLR 25 17.2 28.3 25 62% 26 75.92 1010.6
29 03:53 Calm 16.09 Fair CLR 25.6 17.2 60% 27 75.9 1010.2
29 02:53 E 7 16.09 Fair CLR 26.1 17.2 58% 27 75.87 1009.9
29 01:53 SE 9 16.09 Fair CLR 26.1 17.8 60% 27 75.9 1010.1
29 00:53 SE 15 16.09 Fair CLR 27.2 17.8 57% 28 75.9 1010.2
28 23:53 SE 15 16.09 Fair CLR 27.8 17.8 55% 29 75.87 1009.8
28 22:53 SE 11 16.09 Fair CLR 28.3 17.8 37.2 28.3 53% 29 75.84 1009.7
28 21:53 E 6 16.09 Fair CLR 29.4 17.8 50% 30 75.84 1009.7
28 20:53 SE 9 16.09 Fair CLR 29.4 18.3 51% 30 75.84 1009.4
28 19:53 N 6 16.09 Fair CLR 34.4 12.8 27% 33 75.79 1008.8
28 18:53 NW 11 16.09 Fair CLR 35.6 12.8 25% 35 75.79 1008.7
28 17:53 Vrbl 7 16.09 Fair CLR 35 17.8 36% 36 75.79 1008.8
28 16:53 S 15 16.09 Fair CLR 36.7 16.7 37.8 33.3 31% 37 75.77 1008.5
28 15:53 S 9 16.09 Fair CLR 36.7 14.4 26% 36 75.79 1008.8
28 14:53 S 17 16.09 Fair CLR 37.2 16.1 29% 38 75.84 1009.5
28 13:53 S 11 16.09 Fair CLR 37.2 17.8 32% 39 75.9 1010.0
28 12:53 SE 7 16.09 Fair CLR 36.7 18.3 34% 38 75.92 1010.5
28 11:53 S 13 16.09 Fair CLR 35 18.9 39% 37 75.97 1011.2
28 10:53 SE 11 16.09 Fair CLR 32.8 19.4 32.8 25 45% 35 76 1011.4
Date Time (pdt) Wind (kph) Vis. (km) Weather Sky Cond. Air Dwpt Max. Min. Relative Humidity Wind Chill (°C) Heat Index (°C) altimeter (cm) sea level (mb) 1 hr 3 hr 6 hr
6 hour
Temperature (ºC) Pressure Precipitation (cm)